createdAt,value
2023-05-01T00:00:21.042Z,7.05
2023-05-01T00:01:28.094Z,7.04
2023-05-01T00:02:30.919Z,6.99
2023-05-01T00:04:36.177Z,6.90
2023-05-01T00:05:38.472Z,6.86
2023-05-01T00:06:40.720Z,6.84
2023-05-01T00:07:42.924Z,6.82
2023-05-01T00:08:45.062Z,6.83
2023-05-01T00:09:47.420Z,6.80
2023-05-01T00:10:49.532Z,6.74
2023-05-01T00:11:51.665Z,6.73
2023-05-01T00:12:53.817Z,6.71
2023-05-01T00:13:55.957Z,6.74
2023-05-01T00:14:58.196Z,6.76
2023-05-01T00:16:00.475Z,6.83
2023-05-01T00:17:02.652Z,6.83
2023-05-01T00:18:04.895Z,6.80
2023-05-01T00:19:08.262Z,6.74
2023-05-01T00:20:10.851Z,6.74
2023-05-01T00:21:12.973Z,6.71
2023-05-01T00:22:15.230Z,6.73
2023-05-01T00:23:17.359Z,6.72
2023-05-01T00:24:19.498Z,6.75
2023-05-01T00:25:21.773Z,6.79
2023-05-01T00:26:27.087Z,6.77
2023-05-01T00:27:29.290Z,6.82
2023-05-01T00:28:31.566Z,6.78
2023-05-01T00:29:33.732Z,6.75
2023-05-01T00:30:35.963Z,6.76
2023-05-01T00:31:38.303Z,6.69
2023-05-01T00:32:40.574Z,6.68
2023-05-01T00:33:42.777Z,6.69
2023-05-01T00:34:47.756Z,6.69
2023-05-01T00:35:51.442Z,6.66
2023-05-01T00:36:53.635Z,6.66
2023-05-01T00:37:55.932Z,6.61
2023-05-01T00:38:58.065Z,6.57
2023-05-01T00:40:00.243Z,6.62
2023-05-01T00:41:02.491Z,6.56
2023-05-01T00:42:04.624Z,6.54
2023-05-01T00:43:06.889Z,6.53
2023-05-01T00:44:09.000Z,6.45
2023-05-01T00:45:11.443Z,6.41
2023-05-01T00:46:14.015Z,6.39
2023-05-01T00:47:16.486Z,6.38
2023-05-01T00:48:18.702Z,6.38
2023-05-01T00:49:20.978Z,6.33
2023-05-01T00:50:23.274Z,6.34
2023-05-01T00:51:27.300Z,6.38
2023-05-01T00:52:29.539Z,6.34
2023-05-01T00:53:33.686Z,6.44
2023-05-01T00:54:37.032Z,6.34
2023-05-01T00:55:42.071Z,6.39
2023-05-01T00:56:44.280Z,6.24
2023-05-01T00:57:47.381Z,6.24
2023-05-01T00:58:54.426Z,6.32
2023-05-01T00:59:56.962Z,6.21
2023-05-01T01:00:59.446Z,6.21
2023-05-01T01:02:01.738Z,6.23
2023-05-01T01:03:04.771Z,6.25
2023-05-01T01:04:07.125Z,6.26
2023-05-01T01:05:09.491Z,6.27
2023-05-01T01:06:21.987Z,6.45
2023-05-01T01:07:55.687Z,6.48
2023-05-01T01:09:29.006Z,6.49
2023-05-01T01:10:43.493Z,6.40
2023-05-01T01:12:09.329Z,6.40
2023-05-01T01:13:22.573Z,6.43
2023-05-01T01:14:34.123Z,6.46
2023-05-01T01:15:44.637Z,6.33
2023-05-01T01:16:48.456Z,6.30
2023-05-01T01:18:05.420Z,6.36
2023-05-01T01:20:08.746Z,6.30
2023-05-01T01:21:42.904Z,6.22
2023-05-01T01:22:54.277Z,6.23
2023-05-01T01:23:56.448Z,6.11
2023-05-01T01:24:59.129Z,6.10
2023-05-01T01:26:14.090Z,6.04
2023-05-01T01:27:28.581Z,5.99
2023-05-01T01:28:46.316Z,5.89
2023-05-01T01:30:04.681Z,6.02
2023-05-01T01:31:34.529Z,6.00
2023-05-01T01:32:53.975Z,6.03
2023-05-01T01:34:02.516Z,6.02
2023-05-01T01:35:08.078Z,5.98
2023-05-01T01:36:20.135Z,6.07
2023-05-01T01:37:36.567Z,6.14
2023-05-01T01:38:46.512Z,6.13
2023-05-01T01:40:09.025Z,6.17
2023-05-01T01:41:35.168Z,6.24
2023-05-01T01:42:49.524Z,6.23
2023-05-01T01:44:22.938Z,6.33
2023-05-01T01:45:37.189Z,6.34
2023-05-01T01:46:42.775Z,6.24
2023-05-01T01:47:47.855Z,6.24
2023-05-01T01:48:52.694Z,6.26
2023-05-01T01:49:56.419Z,6.24
2023-05-01T01:51:00.231Z,6.27
2023-05-01T01:52:06.151Z,6.33
2023-05-01T01:53:11.786Z,6.33
2023-05-01T01:54:18.443Z,6.47
2023-05-01T01:55:27.620Z,6.49
2023-05-01T01:56:32.998Z,6.49
2023-05-01T01:57:37.874Z,6.51
2023-05-01T01:58:41.517Z,6.46
2023-05-01T01:59:46.236Z,6.44
2023-05-01T02:00:49.733Z,6.51
2023-05-01T02:01:55.168Z,6.60
2023-05-01T02:03:00.808Z,6.62
2023-05-01T02:04:05.471Z,6.65
2023-05-01T02:05:08.986Z,6.57
2023-05-01T02:06:13.117Z,6.58
2023-05-01T02:07:18.559Z,6.52
2023-05-01T02:08:21.362Z,6.49
2023-05-01T02:09:24.849Z,6.50
2023-05-01T02:10:28.835Z,6.50
2023-05-01T02:11:32.159Z,6.54
2023-05-01T02:12:35.715Z,6.52
2023-05-01T02:13:39.751Z,6.60
2023-05-01T02:14:43.000Z,6.50
2023-05-01T02:15:46.469Z,6.54
2023-05-01T02:16:50.141Z,6.60
2023-05-01T02:17:52.896Z,6.59
2023-05-01T02:18:56.719Z,6.57
2023-05-01T02:19:59.678Z,6.55
2023-05-01T02:21:04.524Z,6.62
2023-05-01T02:22:12.618Z,6.57
2023-05-01T02:23:15.068Z,6.57
2023-05-01T02:24:19.426Z,6.59
2023-05-01T02:25:22.248Z,6.57
2023-05-01T02:26:29.217Z,6.63
2023-05-01T02:27:35.908Z,6.54
2023-05-01T02:28:41.507Z,6.48
2023-05-01T02:29:44.305Z,6.42
2023-05-01T02:30:47.223Z,6.39
2023-05-01T02:31:49.411Z,6.38
2023-05-01T02:32:51.719Z,6.41
2023-05-01T02:33:53.871Z,6.39
2023-05-01T02:34:56.243Z,6.37
2023-05-01T02:35:58.641Z,6.34
2023-05-01T02:37:01.117Z,6.34
2023-05-01T02:38:03.393Z,6.35
2023-05-01T02:39:06.618Z,6.35
2023-05-01T02:40:11.327Z,6.38
2023-05-01T02:41:15.767Z,6.40
2023-05-01T02:42:20.125Z,6.40
2023-05-01T02:43:23.341Z,6.33
2023-05-01T02:44:27.815Z,6.36
2023-05-01T02:45:32.300Z,6.36
2023-05-01T02:46:36.968Z,6.39
2023-05-01T02:47:44.028Z,6.41
2023-05-01T02:48:46.805Z,6.35
2023-05-01T02:49:51.121Z,6.39
2023-05-01T02:50:55.563Z,6.38
2023-05-01T02:51:58.429Z,6.40
2023-05-01T02:53:02.234Z,6.44
2023-05-01T02:54:21.557Z,6.60
2023-05-01T02:55:23.909Z,6.47
2023-05-01T02:56:28.054Z,6.54
2023-05-01T02:57:30.251Z,6.52
2023-05-01T02:58:32.969Z,6.56
2023-05-01T02:59:35.299Z,6.47
2023-05-01T03:00:37.490Z,6.48
2023-05-01T03:01:40.086Z,6.42
2023-05-01T03:02:42.508Z,6.43
2023-05-01T03:03:44.770Z,6.39
2023-05-01T03:04:47.387Z,6.38
2023-05-01T03:05:49.669Z,6.36
2023-05-01T03:06:52.103Z,6.35
2023-05-01T03:07:54.382Z,6.28
2023-05-01T03:08:56.681Z,6.30
2023-05-01T03:09:58.793Z,6.34
2023-05-01T03:11:05.101Z,6.44
2023-05-01T03:12:07.474Z,6.28
2023-05-01T03:13:11.230Z,6.27
2023-05-01T03:14:13.667Z,6.22
2023-05-01T03:15:17.718Z,6.16
2023-05-01T03:16:19.898Z,6.17
2023-05-01T03:17:22.637Z,6.17
2023-05-01T03:18:24.889Z,6.16
2023-05-01T03:19:27.090Z,6.19
2023-05-01T03:20:29.733Z,6.17
2023-05-01T03:21:32.845Z,6.17
2023-05-01T03:22:35.265Z,6.14
2023-05-01T03:23:38.367Z,6.15
2023-05-01T03:24:40.666Z,6.13
2023-05-01T03:25:42.799Z,6.12
2023-05-01T03:26:44.944Z,6.08
2023-05-01T03:27:47.091Z,6.06
2023-05-01T03:28:49.296Z,6.04
2023-05-01T03:29:52.446Z,6.00
2023-05-01T03:30:54.852Z,5.99
2023-05-01T03:31:57.888Z,6.04
2023-05-01T03:33:00.200Z,6.01
2023-05-01T03:34:06.105Z,5.92
2023-05-01T03:35:09.413Z,5.87
2023-05-01T03:36:12.434Z,5.83
2023-05-01T03:37:15.218Z,5.81
2023-05-01T03:38:19.117Z,5.77
2023-05-01T03:39:39.561Z,5.83
2023-05-01T03:41:00.277Z,5.77
2023-05-01T03:42:21.002Z,5.71
2023-05-01T03:43:25.440Z,5.83
2023-05-01T03:44:28.746Z,5.76
2023-05-01T03:45:31.031Z,5.70
2023-05-01T03:46:33.310Z,5.69
2023-05-01T03:47:35.978Z,5.70
2023-05-01T03:48:38.635Z,5.73
2023-05-01T03:49:43.622Z,5.72
2023-05-01T03:50:46.974Z,5.71
2023-05-01T03:51:50.574Z,5.71
2023-05-01T03:52:53.781Z,5.69
2023-05-01T03:53:58.980Z,5.64
2023-05-01T03:55:06.078Z,5.62
2023-05-01T03:56:13.543Z,5.59
2023-05-01T03:57:15.887Z,5.55
2023-05-01T03:58:18.216Z,5.53
2023-05-01T03:59:20.510Z,5.52
2023-05-01T04:00:22.785Z,5.48
2023-05-01T04:01:25.071Z,5.44
2023-05-01T04:02:27.768Z,5.43
2023-05-01T04:03:30.565Z,5.45
2023-05-01T04:04:33.283Z,5.43
2023-05-01T04:05:36.014Z,5.41
2023-05-01T04:06:39.049Z,5.44
2023-05-01T04:07:42.229Z,5.45
2023-05-01T04:08:44.589Z,5.44
2023-05-01T04:09:48.407Z,5.44
2023-05-01T04:10:50.913Z,5.42
2023-05-01T04:11:53.390Z,5.41
2023-05-01T04:12:55.618Z,5.51
2023-05-01T04:13:57.853Z,5.58
2023-05-01T04:15:00.289Z,5.61
2023-05-01T04:16:02.989Z,5.57
2023-05-01T04:17:05.284Z,5.60
2023-05-01T04:18:11.187Z,5.59
2023-05-01T04:19:13.492Z,5.59
2023-05-01T04:20:19.513Z,5.60
2023-05-01T04:21:22.282Z,5.62
2023-05-01T04:22:27.154Z,5.63
2023-05-01T04:23:29.364Z,5.62
2023-05-01T04:24:34.075Z,5.63
2023-05-01T04:25:37.002Z,5.67
2023-05-01T04:26:44.803Z,5.64
2023-05-01T04:27:47.092Z,5.68
2023-05-01T04:28:50.908Z,5.69
2023-05-01T04:29:57.561Z,5.70
2023-05-01T04:31:00.789Z,5.70
2023-05-01T04:32:03.242Z,5.73
2023-05-01T04:33:11.337Z,5.74
2023-05-01T04:34:14.035Z,5.75
2023-05-01T04:35:16.616Z,5.83
2023-05-01T04:36:20.116Z,5.85
2023-05-01T04:37:22.347Z,5.91
2023-05-01T04:38:24.797Z,5.92
2023-05-01T04:39:30.308Z,5.96
2023-05-01T04:40:33.255Z,5.92
2023-05-01T04:41:35.497Z,5.92
2023-05-01T04:42:39.334Z,6.00
2023-05-01T04:43:44.696Z,6.03
2023-05-01T04:44:47.849Z,6.08
2023-05-01T04:45:50.707Z,6.13
2023-05-01T04:46:52.960Z,6.13
2023-05-01T04:47:55.309Z,6.21
2023-05-01T04:48:57.520Z,6.22
2023-05-01T04:49:59.702Z,6.22
2023-05-01T04:51:03.724Z,6.23
2023-05-01T04:52:08.963Z,6.25
2023-05-01T04:53:26.608Z,6.28
2023-05-01T04:54:28.939Z,6.35
2023-05-01T04:55:31.613Z,6.39
2023-05-01T04:56:52.933Z,6.45
2023-05-01T04:57:57.644Z,6.53
2023-05-01T04:59:00.034Z,6.57
2023-05-01T05:00:03.965Z,6.53
2023-05-01T05:01:09.308Z,6.61
2023-05-01T05:02:11.588Z,6.71
2023-05-01T05:03:13.894Z,6.69
2023-05-01T05:04:16.860Z,6.73
2023-05-01T05:05:18.991Z,6.77
2023-05-01T05:06:21.880Z,6.69
2023-05-01T05:07:24.103Z,6.70
2023-05-01T05:09:04.366Z,6.72
2023-05-01T05:10:07.057Z,6.79
2023-05-01T05:11:09.318Z,6.84
2023-05-01T05:12:34.529Z,6.90
2023-05-01T05:13:37.124Z,6.88
2023-05-01T05:14:47.904Z,6.90
2023-05-01T05:15:52.512Z,6.97
2023-05-01T05:16:57.361Z,6.98
2023-05-01T05:18:01.286Z,6.98
2023-05-01T05:19:05.079Z,6.93
2023-05-01T05:20:11.899Z,7.02
2023-05-01T05:21:14.552Z,7.03
2023-05-01T05:22:23.691Z,7.22
2023-05-01T05:23:52.619Z,7.30
2023-05-01T05:24:55.827Z,7.34
2023-05-01T05:26:01.179Z,7.41
2023-05-01T05:27:04.080Z,7.42
2023-05-01T05:28:06.267Z,7.48
2023-05-01T05:29:08.623Z,7.50
2023-05-01T05:30:11.382Z,7.57
2023-05-01T05:31:14.259Z,7.64
2023-05-01T05:32:16.538Z,7.62
2023-05-01T05:33:18.886Z,7.63
2023-05-01T05:34:21.130Z,7.68
2023-05-01T05:35:23.595Z,7.79
2023-05-01T05:36:27.716Z,7.84
2023-05-01T05:37:30.270Z,7.79
2023-05-01T05:38:33.045Z,7.89
2023-05-01T05:39:35.573Z,7.91
2023-05-01T05:40:37.872Z,7.99
2023-05-01T05:41:40.070Z,8.04
2023-05-01T05:42:42.254Z,8.06
2023-05-01T05:43:44.421Z,8.06
2023-05-01T05:44:46.599Z,8.17
2023-05-01T05:45:49.449Z,8.24
2023-05-01T05:46:51.651Z,8.28
2023-05-01T05:48:03.764Z,8.32
2023-05-01T05:49:08.735Z,8.26
2023-05-01T05:50:11.327Z,8.32
2023-05-01T05:51:14.261Z,8.32
2023-05-01T05:52:16.913Z,8.47
2023-05-01T05:53:20.132Z,8.64
2023-05-01T05:54:22.491Z,8.64
2023-05-01T05:55:26.218Z,8.62
2023-05-01T05:56:37.414Z,8.77
2023-05-01T05:57:39.674Z,8.80
2023-05-01T05:58:42.176Z,8.94
2023-05-01T05:59:45.004Z,9.09
2023-05-01T06:00:50.126Z,9.18
2023-05-01T06:01:52.571Z,9.10
2023-05-01T06:02:55.017Z,9.16
2023-05-01T06:03:58.162Z,9.29
2023-05-01T06:05:03.150Z,9.32
2023-05-01T06:06:06.074Z,9.23
2023-05-01T06:07:08.589Z,9.34
2023-05-01T06:08:11.923Z,9.45
2023-05-01T06:09:14.949Z,9.63
2023-05-01T06:10:17.637Z,9.61
2023-05-01T06:11:21.589Z,9.62
2023-05-01T06:12:24.441Z,9.71
2023-05-01T06:13:27.078Z,9.89
2023-05-01T06:14:29.241Z,9.95
2023-05-01T06:15:32.006Z,10.08
2023-05-01T06:16:35.144Z,10.24
2023-05-01T06:17:37.634Z,10.35
2023-05-01T06:18:40.005Z,10.35
2023-05-01T06:19:42.266Z,10.53
2023-05-01T06:20:47.284Z,10.64
2023-05-01T06:21:49.674Z,10.73
2023-05-01T06:22:51.976Z,10.82
2023-05-01T06:24:02.395Z,10.98
2023-05-01T06:25:12.133Z,11.11
2023-05-01T06:26:14.343Z,11.20
2023-05-01T06:27:16.620Z,11.38
2023-05-01T06:28:18.818Z,11.50
2023-05-01T06:29:20.999Z,11.63
2023-05-01T06:30:23.180Z,11.70
2023-05-01T06:31:26.135Z,11.80
2023-05-01T06:32:30.951Z,11.59
2023-05-01T06:33:34.281Z,11.84
2023-05-01T06:34:45.556Z,11.83
2023-05-01T06:35:48.440Z,11.72
2023-05-01T06:36:50.856Z,11.61
2023-05-01T06:37:54.407Z,11.46
2023-05-01T06:38:56.598Z,11.70
2023-05-01T06:39:58.953Z,11.89
2023-05-01T06:41:01.370Z,11.93
2023-05-01T06:42:03.643Z,12.15
2023-05-01T06:43:09.339Z,12.26
2023-05-01T06:44:11.719Z,12.51
2023-05-01T06:45:14.051Z,12.48
2023-05-01T06:46:16.256Z,12.38
2023-05-01T06:47:18.394Z,12.15
2023-05-01T06:48:20.721Z,12.37
2023-05-01T06:49:23.255Z,12.50
2023-05-01T06:50:25.442Z,12.43
2023-05-01T06:51:27.650Z,12.69
2023-05-01T06:52:29.852Z,12.69
2023-05-01T06:53:32.389Z,13.03
2023-05-01T06:54:34.541Z,12.97
2023-05-01T06:55:37.014Z,12.96
2023-05-01T06:56:39.827Z,13.19
2023-05-01T06:57:42.839Z,13.36
2023-05-01T06:58:45.291Z,13.50
2023-05-01T06:59:47.782Z,13.77
2023-05-01T07:00:50.232Z,13.81
2023-05-01T07:01:53.027Z,13.99
2023-05-01T07:02:55.323Z,14.27
2023-05-01T07:03:57.614Z,14.37
2023-05-01T07:05:00.641Z,14.52
2023-05-01T07:06:02.838Z,14.79
2023-05-01T07:07:04.999Z,14.70
2023-05-01T07:08:09.632Z,15.13
2023-05-01T07:09:12.301Z,15.27
2023-05-01T07:10:14.483Z,15.32
2023-05-01T07:11:16.668Z,15.71
2023-05-01T07:12:18.838Z,16.17
2023-05-01T07:13:21.023Z,16.43
2023-05-01T07:14:23.922Z,16.11
2023-05-01T07:15:26.179Z,16.01
2023-05-01T07:16:28.529Z,16.05
2023-05-01T07:17:30.908Z,15.91
2023-05-01T07:18:33.113Z,15.80
2023-05-01T07:19:35.293Z,15.61
2023-05-01T07:20:37.434Z,15.68
2023-05-01T07:21:41.038Z,16.12
2023-05-01T07:22:43.696Z,15.83
2023-05-01T07:23:46.321Z,16.20
2023-05-01T07:24:48.511Z,16.22
2023-05-01T07:25:50.849Z,16.76
2023-05-01T07:26:53.152Z,16.26
2023-05-01T07:27:55.469Z,16.53
2023-05-01T07:28:57.733Z,17.41
2023-05-01T07:30:01.610Z,17.34
2023-05-01T07:31:04.420Z,17.76
2023-05-01T07:32:07.568Z,18.34
2023-05-01T07:33:09.819Z,18.60
2023-05-01T07:34:12.071Z,19.12
2023-05-01T07:35:14.195Z,19.51
2023-05-01T07:36:18.465Z,19.96
2023-05-01T07:37:20.616Z,19.62
2023-05-01T07:38:22.771Z,19.96
2023-05-01T07:39:24.937Z,20.29
2023-05-01T07:40:27.380Z,19.36
2023-05-01T07:41:30.909Z,19.27
2023-05-01T07:42:33.042Z,19.12
2023-05-01T07:43:35.419Z,19.14
2023-05-01T07:44:37.667Z,19.29
2023-05-01T07:45:40.518Z,19.23
2023-05-01T07:46:43.347Z,19.44
2023-05-01T07:47:45.602Z,19.71
2023-05-01T07:48:47.872Z,20.00
2023-05-01T07:49:50.147Z,20.59
2023-05-01T07:50:52.658Z,20.69
2023-05-01T07:51:55.910Z,20.61
2023-05-01T07:52:58.147Z,20.51
2023-05-01T07:54:04.501Z,20.79
2023-05-01T07:55:07.531Z,20.75
2023-05-01T07:56:10.152Z,20.63
2023-05-01T07:57:12.401Z,20.55
2023-05-01T07:58:14.705Z,20.56
2023-05-01T07:59:16.908Z,20.50
2023-05-01T08:00:19.348Z,20.04
2023-05-01T08:01:21.582Z,20.09
2023-05-01T08:02:23.924Z,20.12
2023-05-01T08:03:29.703Z,20.27
2023-05-01T08:04:32.018Z,19.89
2023-05-01T08:05:34.246Z,20.31
2023-05-01T08:06:36.419Z,20.04
2023-05-01T08:07:38.574Z,20.85
2023-05-01T08:08:40.806Z,20.93
2023-05-01T08:09:43.067Z,21.62
2023-05-01T08:10:45.275Z,21.57
2023-05-01T08:11:47.445Z,22.28
2023-05-01T08:12:49.572Z,22.82
2023-05-01T08:13:51.748Z,23.71
2023-05-01T08:14:53.912Z,22.86
2023-05-01T08:15:59.175Z,22.83
2023-05-01T08:17:01.393Z,23.09
2023-05-01T08:18:03.669Z,23.55
2023-05-01T08:19:05.893Z,23.80
2023-05-01T08:20:08.907Z,23.61
2023-05-01T08:21:11.208Z,23.53
2023-05-01T08:22:14.139Z,22.83
2023-05-01T08:23:17.261Z,23.19
2023-05-01T08:24:19.475Z,23.61
2023-05-01T08:25:21.668Z,23.14
2023-05-01T08:26:23.872Z,22.65
2023-05-01T08:27:26.435Z,22.55
2023-05-01T08:28:28.653Z,22.75
2023-05-01T08:29:30.966Z,23.07
2023-05-01T08:30:33.098Z,22.99
2023-05-01T08:31:37.809Z,22.40
2023-05-01T08:32:40.097Z,22.97
2023-05-01T08:33:43.028Z,22.98
2023-05-01T08:34:45.170Z,22.86
2023-05-01T08:35:48.601Z,22.77
2023-05-01T08:36:50.913Z,22.50
2023-05-01T08:37:53.018Z,23.13
2023-05-01T08:38:55.188Z,22.75
2023-05-01T08:39:57.620Z,23.02
2023-05-01T08:41:01.650Z,22.85
2023-05-01T08:42:04.629Z,23.23
2023-05-01T08:43:06.885Z,23.07
2023-05-01T08:44:10.732Z,23.40
2023-05-01T08:45:13.179Z,23.08
2023-05-01T08:46:47.046Z,23.78
2023-05-01T08:47:49.942Z,23.52
2023-05-01T08:48:56.047Z,23.70
2023-05-01T08:50:00.236Z,23.49
2023-05-01T08:51:04.113Z,23.59
2023-05-01T08:52:07.600Z,24.12
2023-05-01T08:53:12.265Z,23.92
2023-05-01T08:54:15.484Z,24.03
2023-05-01T08:55:19.697Z,24.45
2023-05-01T08:56:23.591Z,24.35
2023-05-01T08:57:27.358Z,25.00
2023-05-01T08:58:30.963Z,25.63
2023-05-01T08:59:35.374Z,25.67
2023-05-01T09:00:39.348Z,25.70
2023-05-01T09:01:43.579Z,25.70
2023-05-01T09:02:48.486Z,25.63
2023-05-01T09:03:53.030Z,25.15
2023-05-01T09:04:56.646Z,25.28
2023-05-01T09:06:00.217Z,25.39
2023-05-01T09:07:02.818Z,25.70
2023-05-01T09:08:05.005Z,25.22
2023-05-01T09:09:07.134Z,25.47
2023-05-01T09:10:10.104Z,25.98
2023-05-01T09:11:12.398Z,25.90
2023-05-01T09:12:27.277Z,26.00
2023-05-01T09:13:30.838Z,26.10
2023-05-01T09:14:33.229Z,25.88
2023-05-01T09:15:35.911Z,25.79
2023-05-01T09:16:38.136Z,25.97
2023-05-01T09:17:40.625Z,26.28
2023-05-01T09:18:43.200Z,26.65
2023-05-01T09:19:45.384Z,26.76
2023-05-01T09:20:47.644Z,26.48
2023-05-01T09:21:49.834Z,26.43
2023-05-01T09:22:52.148Z,26.12
2023-05-01T09:23:54.301Z,25.64
2023-05-01T09:24:56.448Z,25.88
2023-05-01T09:25:59.758Z,25.66
2023-05-01T09:27:01.911Z,25.39
2023-05-01T09:28:07.620Z,25.74
2023-05-01T09:29:10.301Z,25.20
2023-05-01T09:30:31.608Z,25.72
2023-05-01T09:31:34.931Z,25.85
2023-05-01T09:32:37.718Z,26.11
2023-05-01T09:33:58.302Z,26.41
2023-05-01T09:35:11.949Z,27.28
2023-05-01T09:36:17.758Z,27.33
2023-05-01T09:37:31.393Z,27.89
2023-05-01T09:38:33.613Z,27.36
2023-05-01T09:39:35.853Z,27.76
2023-05-01T09:40:38.723Z,27.01
2023-05-01T09:41:51.446Z,28.02
2023-05-01T09:42:56.208Z,27.32
2023-05-01T09:43:59.282Z,27.52
2023-05-01T09:45:03.704Z,27.71
2023-05-01T09:46:12.869Z,28.47
2023-05-01T09:47:22.916Z,28.32
2023-05-01T09:48:25.181Z,27.93
2023-05-01T09:49:45.622Z,28.67
2023-05-01T09:50:48.307Z,27.72
2023-05-01T09:51:50.498Z,28.00
2023-05-01T09:52:52.688Z,28.74
2023-05-01T09:53:59.257Z,29.14
2023-05-01T09:55:15.824Z,28.86
2023-05-01T09:56:18.806Z,29.11
2023-05-01T09:57:35.837Z,29.74
2023-05-01T09:58:38.014Z,30.36
2023-05-01T09:59:40.160Z,29.81
2023-05-01T10:00:49.639Z,29.13
2023-05-01T10:01:52.475Z,29.47
2023-05-01T10:02:55.020Z,29.61
2023-05-01T10:03:57.454Z,29.79
2023-05-01T10:05:00.191Z,30.22
2023-05-01T10:06:04.239Z,29.64
2023-05-01T10:07:14.037Z,29.69
2023-05-01T10:08:16.564Z,29.14
2023-05-01T10:09:28.785Z,28.90
2023-05-01T10:10:31.109Z,28.47
2023-05-01T10:11:55.578Z,28.09
2023-05-01T10:13:14.317Z,27.86
2023-05-01T10:14:16.651Z,27.72
2023-05-01T10:15:25.376Z,28.11
2023-05-01T10:16:30.284Z,28.18
2023-05-01T10:17:33.878Z,27.82
2023-05-01T10:18:36.691Z,27.81
2023-05-01T10:19:38.973Z,27.81
2023-05-01T10:20:41.293Z,27.70
2023-05-01T10:21:44.065Z,27.54
2023-05-01T10:22:46.643Z,27.45
2023-05-01T10:23:48.977Z,26.53
2023-05-01T10:24:52.232Z,25.53
2023-05-01T10:25:56.133Z,25.96
2023-05-01T10:26:59.709Z,26.19
2023-05-01T10:28:04.726Z,26.77
2023-05-01T10:29:07.243Z,26.50
2023-05-01T10:30:10.289Z,26.63
2023-05-01T10:31:13.188Z,26.65
2023-05-01T10:32:15.470Z,27.35
2023-05-01T10:33:18.395Z,27.36
2023-05-01T10:34:24.152Z,27.23
2023-05-01T10:35:34.393Z,27.64
2023-05-01T10:36:50.932Z,27.05
2023-05-01T10:38:02.432Z,26.58
2023-05-01T10:39:04.849Z,26.22
2023-05-01T10:40:39.397Z,27.29
2023-05-01T10:42:01.781Z,27.06
2023-05-01T10:43:13.394Z,27.42
2023-05-01T10:44:24.155Z,27.27
2023-05-01T10:45:30.102Z,27.97
2023-05-01T10:46:32.262Z,28.02
2023-05-01T10:47:35.286Z,27.54
2023-05-01T10:48:43.979Z,27.72
2023-05-01T10:50:21.805Z,27.73
2023-05-01T10:51:28.366Z,28.58
2023-05-01T10:52:31.294Z,29.25
2023-05-01T10:53:33.419Z,29.31
2023-05-01T10:54:35.713Z,29.37
2023-05-01T10:55:45.371Z,29.97
2023-05-01T10:56:48.122Z,29.61
2023-05-01T10:57:50.828Z,29.87
2023-05-01T10:58:52.924Z,29.53
2023-05-01T11:00:04.082Z,30.11
2023-05-01T11:01:45.337Z,31.15
2023-05-01T11:02:47.580Z,31.62
2023-05-01T11:03:49.945Z,31.62
2023-05-01T11:04:54.302Z,31.94
2023-05-01T11:06:05.543Z,32.94
2023-05-01T11:07:08.475Z,33.17
2023-05-01T11:08:30.347Z,33.21
2023-05-01T11:09:55.327Z,32.23
2023-05-01T11:10:57.901Z,32.04
2023-05-01T11:12:00.063Z,32.23
2023-05-01T11:13:02.307Z,31.85
2023-05-01T11:14:10.906Z,32.39
2023-05-01T11:15:25.826Z,32.56
2023-05-01T11:16:37.367Z,31.85
2023-05-01T11:17:39.622Z,31.36
2023-05-01T11:18:47.940Z,31.53
2023-05-01T11:19:50.440Z,31.32
2023-05-01T11:20:52.638Z,30.72
2023-05-01T11:21:55.721Z,30.99
2023-05-01T11:22:58.556Z,31.29
2023-05-01T11:24:01.579Z,31.63
2023-05-01T11:25:17.427Z,31.60
2023-05-01T11:26:22.524Z,32.16
2023-05-01T11:27:25.228Z,32.56
2023-05-01T11:28:31.161Z,33.07
2023-05-01T11:29:33.837Z,32.66
2023-05-01T11:30:40.383Z,32.59
2023-05-01T11:31:42.680Z,33.15
2023-05-01T11:32:46.666Z,33.46
2023-05-01T11:33:49.049Z,33.99
2023-05-01T11:34:52.227Z,33.71
2023-05-01T11:35:59.235Z,33.79
2023-05-01T11:37:01.583Z,33.10
2023-05-01T11:38:03.747Z,33.33
2023-05-01T11:39:06.183Z,33.87
2023-05-01T11:40:23.378Z,33.96
2023-05-01T11:41:27.230Z,33.98
2023-05-01T11:42:29.489Z,32.47
2023-05-01T11:43:32.250Z,31.74
2023-05-01T11:44:34.630Z,31.42
2023-05-01T11:45:37.720Z,30.88
2023-05-01T11:46:40.325Z,30.99
2023-05-01T11:47:42.675Z,31.45
2023-05-01T11:48:49.534Z,31.79
2023-05-01T11:49:53.454Z,32.56
2023-05-01T11:50:55.915Z,32.01
2023-05-01T11:51:58.730Z,31.33
2023-05-01T11:53:01.077Z,30.93
2023-05-01T11:54:11.286Z,31.30
2023-05-01T11:55:14.494Z,31.12
2023-05-01T11:56:27.123Z,30.85
2023-05-01T11:57:29.740Z,31.32
2023-05-01T11:58:33.570Z,32.12
2023-05-01T11:59:35.773Z,32.56
2023-05-01T12:00:42.575Z,32.28
2023-05-01T12:01:46.673Z,32.26
2023-05-01T12:02:59.500Z,32.62
2023-05-01T12:04:03.121Z,32.51
2023-05-01T12:05:18.202Z,32.68
2023-05-01T12:06:20.543Z,31.91
2023-05-01T12:07:23.614Z,30.79
2023-05-01T12:08:26.171Z,30.27
2023-05-01T12:09:29.006Z,30.69
2023-05-01T12:10:32.234Z,31.05
2023-05-01T12:11:36.235Z,30.99
2023-05-01T12:12:38.656Z,30.41
2023-05-01T12:13:41.796Z,30.47
2023-05-01T12:14:44.155Z,30.30
2023-05-01T12:15:48.143Z,30.06
2023-05-01T12:16:50.817Z,29.99
2023-05-01T12:17:53.270Z,29.06
2023-05-01T12:18:55.629Z,29.60
2023-05-01T12:19:57.878Z,30.25
2023-05-01T12:21:00.088Z,29.65
2023-05-01T12:22:08.601Z,29.19
2023-05-01T12:23:13.248Z,28.81
2023-05-01T12:24:18.115Z,28.27
2023-05-01T12:25:20.377Z,28.05
2023-05-01T12:26:23.706Z,27.09
2023-05-01T12:27:26.051Z,27.17
2023-05-01T12:28:28.663Z,27.45
2023-05-01T12:29:41.653Z,27.56
2023-05-01T12:30:45.858Z,27.65
2023-05-01T12:31:49.889Z,27.83
2023-05-01T12:32:52.581Z,28.54
2023-05-01T12:33:58.342Z,27.87
2023-05-01T12:35:00.761Z,27.70
2023-05-01T12:36:13.140Z,27.50
2023-05-01T12:37:15.699Z,26.54
2023-05-01T12:38:22.928Z,26.44
2023-05-01T12:39:26.767Z,26.53
2023-05-01T12:40:28.979Z,26.55
2023-05-01T12:41:37.201Z,26.56
2023-05-01T12:42:39.636Z,26.28
2023-05-01T12:43:43.759Z,26.95
2023-05-01T12:44:46.749Z,26.87
2023-05-01T12:45:53.552Z,27.09
2023-05-01T12:46:59.510Z,26.81
2023-05-01T12:48:02.383Z,26.33
2023-05-01T12:49:05.134Z,26.37
2023-05-01T12:50:08.373Z,25.81
2023-05-01T12:51:18.789Z,25.82
2023-05-01T12:52:27.431Z,26.05
2023-05-01T12:53:30.009Z,26.22
2023-05-01T12:54:34.305Z,26.19
2023-05-01T12:55:47.251Z,26.43
2023-05-01T12:56:51.520Z,26.09
2023-05-01T12:57:54.291Z,25.61
2023-05-01T12:58:57.816Z,25.16
2023-05-01T13:00:03.070Z,25.38
2023-05-01T13:01:06.265Z,25.52
2023-05-01T13:02:11.161Z,25.67
2023-05-01T13:03:17.190Z,26.28
2023-05-01T13:04:22.712Z,26.01
2023-05-01T13:05:25.157Z,24.95
2023-05-01T13:06:33.919Z,25.52
2023-05-01T13:07:37.089Z,25.66
2023-05-01T13:08:40.448Z,25.82
2023-05-01T13:09:58.403Z,26.29
2023-05-01T13:11:09.375Z,26.30
2023-05-01T13:12:12.220Z,26.38
2023-05-01T13:13:14.442Z,26.50
2023-05-01T13:14:16.835Z,26.48
2023-05-01T13:15:21.170Z,26.57
2023-05-01T13:16:24.749Z,25.95
2023-05-01T13:17:28.570Z,25.66
2023-05-01T13:18:32.238Z,25.81
2023-05-01T13:19:34.944Z,25.83
2023-05-01T13:20:39.087Z,26.15
2023-05-01T13:21:49.416Z,25.77
2023-05-01T13:22:51.658Z,24.56
2023-05-01T13:23:58.994Z,24.36
2023-05-01T13:25:03.899Z,24.40
2023-05-01T13:26:07.989Z,24.59
2023-05-01T13:27:11.281Z,24.52
2023-05-01T13:28:19.680Z,24.79
2023-05-01T13:29:23.614Z,24.78
2023-05-01T13:30:33.515Z,24.62
2023-05-01T13:31:35.732Z,24.56
2023-05-01T13:32:41.060Z,24.38
2023-05-01T13:33:43.724Z,24.50
2023-05-01T13:34:45.850Z,24.81
2023-05-01T13:35:47.999Z,24.68
2023-05-01T13:36:50.204Z,24.59
2023-05-01T13:37:53.580Z,24.62
2023-05-01T13:38:57.254Z,24.79
2023-05-01T13:39:59.952Z,24.60
2023-05-01T13:41:02.217Z,24.78
2023-05-01T13:42:06.421Z,24.68
2023-05-01T13:43:16.302Z,24.94
2023-05-01T13:44:19.829Z,25.03
2023-05-01T13:45:22.263Z,24.94
2023-05-01T13:46:27.093Z,24.90
2023-05-01T13:47:29.932Z,24.80
2023-05-01T13:48:32.297Z,24.52
2023-05-01T13:49:35.008Z,24.49
2023-05-01T13:50:40.640Z,24.73
2023-05-01T13:51:44.650Z,24.87
2023-05-01T13:52:47.627Z,24.83
2023-05-01T13:53:50.309Z,24.85
2023-05-01T13:54:55.809Z,25.24
2023-05-01T13:55:58.129Z,25.08
2023-05-01T13:57:01.408Z,25.07
2023-05-01T13:58:03.570Z,24.71
2023-05-01T13:59:07.445Z,24.66
2023-05-01T14:00:17.570Z,24.68
2023-05-01T14:01:22.281Z,24.59
2023-05-01T14:02:26.987Z,24.41
2023-05-01T14:03:40.822Z,24.38
2023-05-01T14:04:44.201Z,24.50
2023-05-01T14:05:47.643Z,24.28
2023-05-01T14:06:50.042Z,23.76
2023-05-01T14:07:58.324Z,24.07
2023-05-01T14:09:00.551Z,23.81